createdAt,value
2018-08-12T00:00:55.899Z,71.30
2018-08-12T00:01:55.891Z,71.70
2018-08-12T00:02:55.876Z,71.70
2018-08-12T00:03:55.900Z,71.20
2018-08-12T00:04:55.856Z,70.38
2018-08-12T00:05:55.843Z,70.68
2018-08-12T00:06:55.836Z,70.89
2018-08-12T00:07:55.868Z,69.98
2018-08-12T00:08:55.812Z,70.18
2018-08-12T00:09:56.644Z,70.18
2018-08-12T00:10:55.794Z,69.87
2018-08-12T00:11:55.780Z,70.18
2018-08-12T00:12:55.831Z,69.98
2018-08-12T00:13:55.782Z,70.92
2018-08-12T00:14:55.741Z,70.72
2018-08-12T00:15:55.764Z,70.62
2018-08-12T00:16:55.718Z,70.62
2018-08-12T00:17:55.714Z,71.03
2018-08-12T00:18:55.697Z,70.92
2018-08-12T00:19:55.690Z,72.45
2018-08-12T00:20:55.730Z,71.73
2018-08-12T00:21:55.667Z,72.25
2018-08-12T00:22:55.651Z,72.25
2018-08-12T00:23:55.660Z,72.75
2018-08-12T00:24:55.630Z,72.55
2018-08-12T00:25:55.658Z,72.96
2018-08-12T00:26:55.609Z,73.77
2018-08-12T00:27:55.600Z,72.85
2018-08-12T00:28:55.626Z,71.73
2018-08-12T00:29:55.615Z,72.34
2018-08-12T00:30:55.566Z,71.84
2018-08-12T00:31:55.579Z,72.45
2018-08-12T00:32:55.544Z,72.25
2018-08-12T00:33:55.555Z,72.14
2018-08-12T00:34:55.518Z,71.73
2018-08-12T00:35:55.535Z,72.04
2018-08-12T00:36:55.522Z,72.04
2018-08-12T00:37:55.521Z,71.73
2018-08-12T00:38:55.472Z,70.92
2018-08-12T00:39:55.470Z,71.73
2018-08-12T00:40:55.492Z,71.73
2018-08-12T00:41:55.439Z,72.04
2018-08-12T00:42:55.430Z,72.34
2018-08-12T00:43:55.431Z,72.25
2018-08-12T00:44:55.404Z,71.73
2018-08-12T00:45:55.430Z,71.43
2018-08-12T00:46:55.458Z,71.23
2018-08-12T00:47:55.369Z,71.43
2018-08-12T00:48:55.361Z,70.82
2018-08-12T00:49:56.152Z,72.14
2018-08-12T00:50:55.336Z,72.14
2018-08-12T00:51:55.385Z,72.14
2018-08-12T00:52:55.315Z,71.84
2018-08-12T00:53:55.308Z,71.84
2018-08-12T00:54:55.295Z,71.73
2018-08-12T00:55:55.280Z,71.73
2018-08-12T00:56:55.302Z,71.73
2018-08-12T00:57:55.276Z,71.53
2018-08-12T00:58:55.275Z,71.53
2018-08-12T00:59:55.235Z,72.04
2018-08-12T01:00:55.254Z,72.34
2018-08-12T01:01:55.213Z,71.33
2018-08-12T01:02:55.204Z,72.17
2018-08-12T01:03:55.222Z,72.38
2018-08-12T01:04:55.187Z,71.97
2018-08-12T01:05:55.175Z,71.67
2018-08-12T01:06:55.199Z,71.77
2018-08-12T01:07:55.148Z,72.08
2018-08-12T01:08:55.177Z,71.57
2018-08-12T01:09:55.122Z,72.28
2018-08-12T01:10:55.128Z,71.57
2018-08-12T01:11:55.109Z,71.57
2018-08-12T01:12:55.102Z,72.28
2018-08-12T01:13:55.160Z,72.08
2018-08-12T01:14:55.104Z,72.28
2018-08-12T01:15:55.119Z,71.57
2018-08-12T01:16:55.044Z,72.21
2018-08-12T01:17:55.033Z,72.01
2018-08-12T01:18:55.044Z,72.21
2018-08-12T01:19:55.043Z,72.31
2018-08-12T01:20:55.009Z,72.31
2018-08-12T01:21:54.987Z,72.82
2018-08-12T01:22:54.988Z,71.80
2018-08-12T01:23:54.975Z,72.21
2018-08-12T01:24:54.987Z,72.21
2018-08-12T01:25:54.943Z,71.94
2018-08-12T01:26:54.935Z,72.34
2018-08-12T01:27:54.924Z,72.45
2018-08-12T01:28:54.910Z,72.75
2018-08-12T01:29:54.997Z,72.55
2018-08-12T01:30:54.899Z,73.26
2018-08-12T01:31:54.874Z,72.55
2018-08-12T01:32:54.869Z,73.26
2018-08-12T01:33:54.859Z,73.26
2018-08-12T01:34:54.873Z,72.48
2018-08-12T01:35:54.956Z,72.69
2018-08-12T01:36:54.867Z,72.86
2018-08-12T01:37:54.816Z,72.99
2018-08-12T01:38:54.796Z,72.28
2018-08-12T01:39:54.813Z,71.97
2018-08-12T01:40:54.809Z,72.38
2018-08-12T01:41:54.766Z,72.38
2018-08-12T01:42:54.756Z,72.38
2018-08-12T01:43:54.754Z,72.08
2018-08-12T01:44:54.728Z,72.99
2018-08-12T01:45:54.756Z,72.48
2018-08-12T01:46:54.703Z,72.38
2018-08-12T01:47:54.696Z,72.38
2018-08-12T01:48:54.753Z,72.48
2018-08-12T01:49:54.670Z,73.84
2018-08-12T01:50:54.706Z,73.43
2018-08-12T01:51:54.650Z,74.15
2018-08-12T01:52:54.642Z,74.45
2018-08-12T01:53:54.632Z,74.35
2018-08-12T01:54:54.641Z,73.84
2018-08-12T01:55:54.606Z,73.84
2018-08-12T01:56:54.604Z,74.15
2018-08-12T01:57:54.623Z,74.15
2018-08-12T01:58:54.573Z,74.15
2018-08-12T01:59:54.563Z,74.04
2018-08-12T02:00:54.545Z,74.25
2018-08-12T02:01:54.567Z,74.25
2018-08-12T02:02:54.526Z,74.35
2018-08-12T02:03:54.520Z,74.15
2018-08-12T02:04:54.511Z,73.84
2018-08-12T02:05:54.499Z,73.23
2018-08-12T02:06:54.521Z,73.43
2018-08-12T02:07:54.464Z,73.43
2018-08-12T02:08:54.457Z,72.92
2018-08-12T02:09:54.466Z,73.74
2018-08-12T02:10:54.434Z,72.92
2018-08-12T02:11:54.448Z,72.62
2018-08-12T02:12:54.485Z,72.92
2018-08-12T02:13:54.397Z,72.82
2018-08-12T02:14:54.419Z,72.72
2018-08-12T02:15:54.395Z,73.64
2018-08-12T02:16:54.416Z,73.84
2018-08-12T02:17:54.352Z,73.84
2018-08-12T02:18:54.340Z,74.04
2018-08-12T02:19:54.331Z,74.35
2018-08-12T02:20:54.318Z,74.25
2018-08-12T02:21:54.356Z,74.35
2018-08-12T02:22:54.327Z,74.76
2018-08-12T02:23:54.288Z,74.96
2018-08-12T02:24:54.272Z,74.76
2018-08-12T02:25:54.263Z,74.45
2018-08-12T02:26:54.253Z,74.55
2018-08-12T02:27:54.310Z,73.74
2018-08-12T02:28:54.340Z,74.35
2018-08-12T02:29:54.222Z,74.25
2018-08-12T02:30:54.208Z,73.94
2018-08-12T02:31:54.201Z,74.04
2018-08-12T02:32:54.248Z,74.45
2018-08-12T02:33:54.206Z,73.94
2018-08-12T02:34:54.166Z,74.69
2018-08-12T02:35:54.149Z,74.28
2018-08-12T02:36:54.170Z,74.28
2018-08-12T02:37:54.132Z,74.18
2018-08-12T02:38:54.116Z,74.79
2018-08-12T02:39:54.121Z,74.18
2018-08-12T02:40:54.133Z,74.69
2018-08-12T02:41:54.108Z,74.28
2018-08-12T02:42:54.095Z,74.18
2018-08-12T02:43:54.063Z,72.75
2018-08-12T02:44:54.054Z,73.67
2018-08-12T02:45:54.046Z,72.89
2018-08-12T02:46:54.029Z,73.16
2018-08-12T02:47:54.076Z,74.21
2018-08-12T02:48:54.056Z,74.49
2018-08-12T02:49:53.995Z,74.08
2018-08-12T02:50:54.008Z,73.60
2018-08-12T02:51:53.972Z,73.71
2018-08-12T02:52:54.010Z,73.19
2018-08-12T02:53:53.989Z,73.26
2018-08-12T02:54:53.965Z,73.16
2018-08-12T02:55:54.005Z,72.75
2018-08-12T02:56:53.917Z,73.88
2018-08-12T02:57:53.905Z,74.38
2018-08-12T02:58:53.899Z,74.32
2018-08-12T02:59:53.949Z,73.77
2018-08-12T03:00:53.884Z,73.30
2018-08-12T03:01:53.857Z,73.81
2018-08-12T03:02:53.884Z,74.32
2018-08-12T03:03:53.844Z,74.01
2018-08-12T03:04:53.853Z,74.01
2018-08-12T03:05:53.812Z,74.42
2018-08-12T03:06:53.804Z,73.19
2018-08-12T03:07:53.848Z,74.11
2018-08-12T03:08:53.780Z,74.18
2018-08-12T03:09:53.764Z,74.73
2018-08-12T03:10:53.817Z,74.52
2018-08-12T03:11:53.750Z,74.01
2018-08-12T03:12:53.738Z,74.01
2018-08-12T03:13:53.728Z,74.11
2018-08-12T03:14:53.742Z,74.32
2018-08-12T03:15:53.731Z,74.11
2018-08-12T03:16:53.692Z,74.52
2018-08-12T03:17:53.688Z,74.42
2018-08-12T03:18:53.709Z,73.50
2018-08-12T03:19:53.667Z,74.42
2018-08-12T03:20:53.650Z,73.50
2018-08-12T03:21:53.670Z,73.40
2018-08-12T03:22:53.625Z,73.60
2018-08-12T03:23:53.618Z,73.60
2018-08-12T03:24:53.635Z,73.40
2018-08-12T03:25:53.590Z,74.01
2018-08-12T03:26:53.604Z,74.42
2018-08-12T03:27:53.577Z,73.30
2018-08-12T03:28:53.557Z,72.79
2018-08-12T03:29:53.622Z,72.79
2018-08-12T03:30:53.586Z,72.45
2018-08-12T03:31:53.533Z,72.34
2018-08-12T03:32:53.573Z,71.77
2018-08-12T03:33:53.501Z,71.84
2018-08-12T03:34:53.551Z,71.63
2018-08-12T03:35:53.538Z,72.14
2018-08-12T03:36:53.499Z,71.23
2018-08-12T03:37:53.453Z,71.02
2018-08-12T03:38:53.456Z,69.80
2018-08-12T03:39:53.433Z,70.31
2018-08-12T03:40:53.422Z,70.72
2018-08-12T03:41:53.461Z,69.76
2018-08-12T03:42:53.441Z,70.31
2018-08-12T03:43:53.400Z,70.48
2018-08-12T03:44:53.376Z,70.99
2018-08-12T03:45:53.426Z,70.78
2018-08-12T03:46:53.358Z,70.68
2018-08-12T03:47:53.356Z,70.17
2018-08-12T03:48:53.396Z,70.48
2018-08-12T03:49:53.384Z,70.58
2018-08-12T03:50:53.374Z,70.68
2018-08-12T03:51:53.313Z,70.89
2018-08-12T03:52:53.288Z,70.17
2018-08-12T03:53:53.290Z,70.28
2018-08-12T03:54:53.478Z,70.78
2018-08-12T03:55:53.254Z,70.17
2018-08-12T03:56:53.240Z,71.09
2018-08-12T03:57:53.268Z,69.97
2018-08-12T03:58:53.220Z,70.78
2018-08-12T03:59:53.219Z,71.19
2018-08-12T04:00:53.199Z,72.31
2018-08-12T04:01:53.188Z,71.50
2018-08-12T04:02:53.210Z,71.09
2018-08-12T04:03:53.183Z,70.38
2018-08-12T04:04:53.201Z,70.99
2018-08-12T04:05:53.152Z,70.89
2018-08-12T04:06:53.163Z,70.92
2018-08-12T04:07:53.175Z,71.63
2018-08-12T04:08:53.106Z,72.45
2018-08-12T04:09:53.242Z,71.02
2018-08-12T04:10:53.083Z,70.28
2018-08-12T04:11:53.188Z,70.89
2018-08-12T04:12:53.111Z,71.30
2018-08-12T04:13:53.050Z,70.51
2018-08-12T04:14:53.051Z,70.68
2018-08-12T04:15:53.029Z,72.24
2018-08-12T04:16:53.011Z,71.09
2018-08-12T04:17:53.067Z,71.12
2018-08-12T04:18:53.004Z,72.21
2018-08-12T04:19:53.002Z,71.91
2018-08-12T04:20:53.012Z,70.99
2018-08-12T04:21:52.959Z,71.02
2018-08-12T04:22:52.952Z,70.99
2018-08-12T04:23:52.937Z,71.30
2018-08-12T04:24:52.923Z,70.78
2018-08-12T04:25:52.960Z,71.50
2018-08-12T04:26:52.904Z,70.89
2018-08-12T04:27:52.900Z,70.89
2018-08-12T04:28:52.878Z,70.68
2018-08-12T04:29:52.879Z,70.48
2018-08-12T04:30:52.890Z,70.78
2018-08-12T04:31:52.859Z,72.11
2018-08-12T04:32:52.835Z,70.99
2018-08-12T04:33:52.827Z,72.41
2018-08-12T04:34:52.810Z,72.41
2018-08-12T04:35:52.846Z,71.09
2018-08-12T04:36:52.795Z,71.09
2018-08-12T04:37:52.777Z,70.78
2018-08-12T04:38:52.781Z,70.78
2018-08-12T04:39:52.751Z,70.89
2018-08-12T04:40:52.779Z,70.78
2018-08-12T04:41:52.762Z,69.84
2018-08-12T04:42:52.724Z,70.89
2018-08-12T04:43:52.746Z,69.87
2018-08-12T04:44:52.709Z,70.78
2018-08-12T04:45:52.699Z,70.14
2018-08-12T04:46:52.677Z,70.86
2018-08-12T04:47:52.669Z,70.75
2018-08-12T04:48:52.683Z,70.95
2018-08-12T04:49:52.639Z,70.24
2018-08-12T04:50:52.664Z,70.75
2018-08-12T04:51:52.651Z,70.86
2018-08-12T04:52:52.605Z,70.04
2018-08-12T04:53:52.624Z,70.65
2018-08-12T04:54:52.609Z,69.63
2018-08-12T04:55:52.592Z,70.65
2018-08-12T04:56:52.599Z,69.63
2018-08-12T04:57:52.554Z,70.31
2018-08-12T04:58:52.549Z,69.29
2018-08-12T04:59:52.560Z,70.31
2018-08-12T05:00:52.530Z,70.51
2018-08-12T05:01:52.507Z,69.60
2018-08-12T05:02:52.501Z,69.60
2018-08-12T05:03:52.486Z,70.10
2018-08-12T05:04:52.506Z,68.35
2018-08-12T05:05:52.468Z,66.82
2018-08-12T05:06:52.452Z,67.22
2018-08-12T05:07:52.453Z,66.92
2018-08-12T05:08:52.466Z,66.79
2018-08-12T05:09:52.421Z,66.00
2018-08-12T05:10:52.465Z,66.38
2018-08-12T05:11:52.468Z,66.08
2018-08-12T05:12:52.393Z,65.88
2018-08-12T05:13:52.374Z,65.74
2018-08-12T05:14:52.415Z,65.44
2018-08-12T05:15:52.395Z,64.73
2018-08-12T05:16:52.345Z,64.83
2018-08-12T05:17:52.355Z,65.13
2018-08-12T05:18:52.322Z,64.62
2018-08-12T05:19:52.317Z,64.01
2018-08-12T05:20:52.291Z,63.58
2018-08-12T05:21:52.293Z,63.98
2018-08-12T05:22:52.307Z,63.58
2018-08-12T05:23:52.441Z,63.28
2018-08-12T05:24:52.255Z,63.28
2018-08-12T05:25:52.244Z,63.68
2018-08-12T05:26:52.283Z,63.34
2018-08-12T05:27:52.217Z,63.24
2018-08-12T05:28:52.205Z,63.14
2018-08-12T05:29:52.207Z,62.63
2018-08-12T05:30:52.200Z,62.81
2018-08-12T05:31:52.197Z,62.81
2018-08-12T05:32:52.162Z,63.42
2018-08-12T05:33:52.149Z,62.81
2018-08-12T05:34:52.177Z,61.99
2018-08-12T05:35:52.128Z,61.90
2018-08-12T05:36:52.127Z,62.27
2018-08-12T05:37:52.102Z,61.36
2018-08-12T05:38:52.124Z,61.08
2018-08-12T05:39:52.093Z,61.25
2018-08-12T05:40:52.101Z,61.16
2018-08-12T05:41:52.067Z,61.16
2018-08-12T05:42:52.057Z,61.23
2018-08-12T05:43:52.041Z,61.02
2018-08-12T05:44:52.057Z,61.43
2018-08-12T05:45:52.063Z,61.33
2018-08-12T05:46:52.039Z,59.91
2018-08-12T05:47:52.002Z,60.21
2018-08-12T05:48:52.017Z,61.02
2018-08-12T05:49:51.976Z,60.31
2018-08-12T05:50:51.958Z,60.11
2018-08-12T05:51:51.948Z,60.19
2018-08-12T05:52:51.958Z,59.27
2018-08-12T05:53:51.929Z,59.07
2018-08-12T05:54:51.946Z,61.00
2018-08-12T05:55:51.898Z,59.38
2018-08-12T05:56:51.931Z,59.27
2018-08-12T05:57:51.880Z,60.19
2018-08-12T05:58:51.882Z,60.26
2018-08-12T05:59:51.888Z,58.44
2018-08-12T06:00:51.850Z,59.34
2018-08-12T06:01:51.909Z,58.54
2018-08-12T06:02:51.898Z,58.61
2018-08-12T06:03:51.817Z,58.64
2018-08-12T06:04:51.826Z,58.31
2018-08-12T06:05:51.791Z,58.00
2018-08-12T06:06:51.802Z,57.80
2018-08-12T06:07:51.767Z,58.51
2018-08-12T06:08:51.775Z,57.67
2018-08-12T06:09:51.797Z,57.98
2018-08-12T06:10:51.735Z,57.37
2018-08-12T06:11:51.724Z,57.27
2018-08-12T06:12:51.710Z,57.44
2018-08-12T06:13:51.697Z,57.34
2018-08-12T06:14:51.757Z,57.44
2018-08-12T06:15:51.680Z,57.65
2018-08-12T06:16:51.668Z,58.36
2018-08-12T06:17:51.656Z,57.04
2018-08-12T06:18:51.666Z,56.84
2018-08-12T06:19:51.695Z,56.73
2018-08-12T06:20:51.622Z,57.11
2018-08-12T06:21:51.614Z,56.73
2018-08-12T06:22:51.654Z,56.71
2018-08-12T06:23:51.611Z,57.11
2018-08-12T06:24:51.583Z,57.11
2018-08-12T06:25:51.641Z,56.40
2018-08-12T06:26:51.581Z,57.52
2018-08-12T06:27:51.568Z,57.11
2018-08-12T06:28:51.534Z,56.61
2018-08-12T06:29:51.527Z,56.51
2018-08-12T06:30:51.557Z,56.91
2018-08-12T06:31:51.504Z,56.51
2018-08-12T06:32:51.491Z,56.51
2018-08-12T06:33:51.476Z,56.71
2018-08-12T06:34:51.497Z,56.40
2018-08-12T06:35:51.498Z,56.58
2018-08-12T06:36:51.449Z,55.98
2018-08-12T06:37:51.467Z,56.18
2018-08-12T06:38:51.427Z,56.48
2018-08-12T06:39:51.460Z,55.77
2018-08-12T06:40:51.421Z,55.77
2018-08-12T06:41:51.384Z,55.87
2018-08-12T06:42:51.433Z,55.77
2018-08-12T06:43:51.405Z,55.57
2018-08-12T06:44:51.352Z,55.87
2018-08-12T06:45:51.339Z,55.87
2018-08-12T06:46:51.373Z,55.98
2018-08-12T06:47:51.366Z,55.94
2018-08-12T06:48:51.303Z,55.44
2018-08-12T06:49:51.310Z,55.44
2018-08-12T06:50:51.298Z,55.24
2018-08-12T06:51:51.306Z,55.44
2018-08-12T06:52:51.260Z,55.04
2018-08-12T06:53:51.255Z,55.32
2018-08-12T06:54:51.291Z,55.24
2018-08-12T06:55:51.224Z,54.81
2018-08-12T06:56:51.221Z,55.21
2018-08-12T06:57:51.200Z,55.11
2018-08-12T06:58:51.187Z,54.91
2018-08-12T06:59:51.221Z,55.19
2018-08-12T07:00:51.207Z,55.09
2018-08-12T07:01:51.202Z,54.89
2018-08-12T07:02:51.147Z,54.18
2018-08-12T07:03:51.150Z,54.89
2018-08-12T07:04:51.127Z,54.48
2018-08-12T07:05:51.231Z,54.86
2018-08-12T07:06:51.122Z,54.68
2018-08-12T07:07:51.121Z,54.48
2018-08-12T07:08:51.092Z,54.46
2018-08-12T07:09:51.077Z,54.16
2018-08-12T07:10:51.073Z,54.25
2018-08-12T07:11:51.066Z,54.16
2018-08-12T07:12:51.097Z,53.75
2018-08-12T07:13:51.030Z,53.75
2018-08-12T07:14:51.012Z,53.34
2018-08-12T07:15:51.104Z,53.63
2018-08-12T07:16:50.992Z,53.83
2018-08-12T07:17:51.022Z,53.32
2018-08-12T07:18:50.966Z,52.92
2018-08-12T07:19:50.985Z,53.42
2018-08-12T07:20:50.940Z,52.82
2018-08-12T07:21:50.969Z,52.72
2018-08-12T07:22:50.986Z,52.82
2018-08-12T07:23:50.980Z,53.02
2018-08-12T07:24:50.951Z,52.69
2018-08-12T07:25:51.809Z,52.59
2018-08-12T07:26:50.874Z,52.80
2018-08-12T07:27:50.892Z,52.49
2018-08-12T07:28:50.889Z,52.57
2018-08-12T07:29:50.867Z,51.16
2018-08-12T07:30:50.837Z,51.26
2018-08-12T07:31:50.869Z,51.36
2018-08-12T07:32:50.842Z,51.97
2018-08-12T07:33:50.805Z,51.54
2018-08-12T07:34:50.795Z,51.34
2018-08-12T07:35:51.172Z,51.64
2018-08-12T07:36:50.764Z,51.03
2018-08-12T07:37:50.751Z,50.63
2018-08-12T07:38:50.969Z,50.73
2018-08-12T07:39:50.758Z,51.64
2018-08-12T07:40:50.750Z,50.43
2018-08-12T07:41:50.728Z,50.93
2018-08-12T07:42:50.729Z,51.14
2018-08-12T07:43:50.721Z,50.81
2018-08-12T07:44:50.743Z,51.61
2018-08-12T07:45:50.675Z,50.91
2018-08-12T07:46:50.655Z,50.51
2018-08-12T07:47:50.680Z,50.51
2018-08-12T07:48:50.667Z,50.10
2018-08-12T07:49:50.645Z,50.40
2018-08-12T07:50:50.638Z,49.90
2018-08-12T07:51:50.593Z,49.90
2018-08-12T07:52:50.582Z,49.98
2018-08-12T07:53:50.573Z,48.97
2018-08-12T07:54:50.565Z,48.97
2018-08-12T07:55:50.659Z,48.97
2018-08-12T07:56:50.539Z,48.87
2018-08-12T07:57:50.540Z,49.55
2018-08-12T07:58:50.569Z,48.97
2018-08-12T07:59:50.520Z,49.25
2018-08-12T08:00:50.506Z,48.85
2018-08-12T08:01:50.509Z,50.15
2018-08-12T08:02:50.495Z,48.44
2018-08-12T08:03:50.496Z,48.63
2018-08-12T08:04:50.451Z,48.02
2018-08-12T08:05:50.496Z,48.14
2018-08-12T08:06:50.472Z,48.63
2018-08-12T08:07:50.418Z,48.52
2018-08-12T08:08:50.414Z,48.22
2018-08-12T08:09:50.428Z,48.20
2018-08-12T08:10:50.381Z,47.90
2018-08-12T08:11:50.413Z,48.40
2018-08-12T08:12:50.368Z,47.60
2018-08-12T08:13:50.347Z,47.30
2018-08-12T08:14:50.333Z,47.38
2018-08-12T08:15:50.329Z,47.77
2018-08-12T08:16:50.364Z,47.77
2018-08-12T08:17:50.323Z,47.47
2018-08-12T08:18:50.300Z,47.65
2018-08-12T08:19:50.440Z,46.15
2018-08-12T08:20:50.351Z,47.75
2018-08-12T08:21:50.256Z,47.25
2018-08-12T08:22:50.260Z,46.55
2018-08-12T08:23:50.241Z,46.03
2018-08-12T08:24:50.231Z,46.62
2018-08-12T08:25:50.301Z,45.62
2018-08-12T08:26:50.207Z,45.72
2018-08-12T08:27:50.190Z,45.72
2018-08-12T08:28:50.189Z,45.62
2018-08-12T08:29:50.236Z,45.20
2018-08-12T08:30:50.165Z,45.10
2018-08-12T08:31:50.361Z,45.00
2018-08-12T08:32:50.198Z,45.20
2018-08-12T08:33:50.127Z,45.30
2018-08-12T08:34:50.142Z,45.10
2018-08-12T08:35:50.112Z,44.90
2018-08-12T08:36:50.094Z,44.20
2018-08-12T08:37:50.149Z,44.80
2018-08-12T08:38:50.070Z,44.70
2018-08-12T08:39:50.147Z,45.10
2018-08-12T08:40:50.056Z,44.80
2018-08-12T08:41:50.071Z,45.00
2018-08-12T08:42:50.036Z,44.98
2018-08-12T08:43:50.106Z,44.48
2018-08-12T08:44:50.000Z,44.28
2018-08-12T08:45:49.997Z,43.98
2018-08-12T08:46:49.980Z,44.08
2018-08-12T08:47:49.997Z,44.16
2018-08-12T08:48:49.962Z,44.35
2018-08-12T08:49:50.000Z,44.06
2018-08-12T08:50:50.015Z,42.76
2018-08-12T08:51:49.966Z,42.16
2018-08-12T08:52:49.908Z,42.54
2018-08-12T08:53:49.908Z,43.24
2018-08-12T08:54:49.896Z,43.04
2018-08-12T08:55:49.993Z,43.24
2018-08-12T08:56:49.896Z,42.83
2018-08-12T08:57:49.862Z,43.63
2018-08-12T08:58:49.846Z,43.33
2018-08-12T08:59:49.844Z,42.83
2018-08-12T09:00:49.855Z,42.74
2018-08-12T09:01:49.812Z,44.12
2018-08-12T09:02:49.808Z,42.52
2018-08-12T09:03:49.807Z,43.01
2018-08-12T09:04:49.818Z,41.39
2018-08-12T09:05:49.975Z,41.39
2018-08-12T09:06:49.808Z,41.30
2018-08-12T09:07:49.762Z,41.39
2018-08-12T09:08:50.008Z,40.17
2018-08-12T09:09:49.788Z,40.59
2018-08-12T09:10:49.787Z,40.67
2018-08-12T09:11:49.805Z,40.37
2018-08-12T09:12:49.693Z,39.78
2018-08-12T09:13:49.706Z,39.87
2018-08-12T09:14:49.726Z,40.37
2018-08-12T09:15:49.686Z,40.56
2018-08-12T09:16:49.671Z,39.06
2018-08-12T09:17:49.640Z,38.66
2018-08-12T09:18:49.626Z,38.36
2018-08-12T09:19:50.265Z,38.56
2018-08-12T09:20:49.662Z,39.15
2018-08-12T09:21:49.596Z,38.85
2018-08-12T09:22:49.590Z,40.34
2018-08-12T09:23:49.617Z,40.53
2018-08-12T09:24:49.620Z,38.54
2018-08-12T09:25:49.599Z,38.44
2018-08-12T09:26:49.535Z,37.14
2018-08-12T09:27:49.535Z,37.62
2018-08-12T09:28:49.524Z,38.02
2018-08-12T09:29:49.504Z,37.12
2018-08-12T09:30:49.530Z,36.72
2018-08-12T09:31:49.487Z,37.52
2018-08-12T09:32:49.470Z,36.63
2018-08-12T09:33:49.456Z,35.53
2018-08-12T09:34:49.496Z,35.72
2018-08-12T09:35:49.443Z,35.83
2018-08-12T09:36:49.445Z,35.61
2018-08-12T09:37:49.431Z,35.11
2018-08-12T09:38:49.402Z,35.61
2018-08-12T09:39:49.419Z,35.51
2018-08-12T09:40:49.381Z,35.83
2018-08-12T09:41:49.415Z,35.81
2018-08-12T09:42:49.380Z,35.31
2018-08-12T09:43:49.411Z,36.01
2018-08-12T09:44:49.418Z,35.41
2018-08-12T09:45:49.322Z,34.51
2018-08-12T09:46:49.322Z,34.89
2018-08-12T09:47:49.321Z,35.89
2018-08-12T09:48:49.330Z,35.19
2018-08-12T09:49:49.283Z,36.49
2018-08-12T09:50:49.264Z,36.69
2018-08-12T09:51:49.394Z,35.47
2018-08-12T09:52:49.256Z,35.88
2018-08-12T09:53:49.315Z,36.67
2018-08-12T09:54:49.223Z,36.27
2018-08-12T09:55:49.288Z,36.07
2018-08-12T09:56:49.244Z,36.18
2018-08-12T09:57:49.202Z,36.18
2018-08-12T09:58:49.186Z,36.18
2018-08-12T09:59:49.177Z,36.27
2018-08-12T10:00:49.202Z,37.77
2018-08-12T10:01:49.187Z,38.05
2018-08-12T10:02:49.172Z,37.75
2018-08-12T10:03:49.133Z,37.25
2018-08-12T10:04:49.138Z,37.45
2018-08-12T10:05:49.099Z,37.53
2018-08-12T10:06:49.118Z,37.53
2018-08-12T10:07:49.132Z,37.34
2018-08-12T10:08:49.080Z,37.53
2018-08-12T10:09:49.087Z,38.43
2018-08-12T10:10:49.042Z,38.13
2018-08-12T10:11:49.036Z,37.93
2018-08-12T10:12:49.068Z,37.93
2018-08-12T10:13:49.042Z,38.23
2018-08-12T10:14:49.005Z,38.43
2018-08-12T10:15:49.141Z,38.33
2018-08-12T10:16:49.018Z,38.43
2018-08-12T10:17:48.994Z,38.93
2018-08-12T10:18:48.981Z,38.21
2018-08-12T10:19:48.962Z,38.81
2018-08-12T10:20:48.987Z,38.81
2018-08-12T10:21:48.964Z,39.21
2018-08-12T10:22:48.920Z,39.80
2018-08-12T10:23:48.903Z,39.80
2018-08-12T10:24:48.896Z,38.91
2018-08-12T10:25:48.914Z,38.89
2018-08-12T10:26:48.876Z,38.81
2018-08-12T10:27:48.877Z,40.40
2018-08-12T10:28:48.846Z,38.71
2018-08-12T10:29:48.836Z,39.31
2018-08-12T10:30:48.858Z,39.70
2018-08-12T10:31:48.849Z,39.80
2018-08-12T10:32:48.816Z,39.61
2018-08-12T10:33:48.816Z,39.80
2018-08-12T10:34:48.777Z,40.60
2018-08-12T10:35:48.776Z,41.00
2018-08-12T10:36:48.765Z,40.80
2018-08-12T10:37:48.759Z,40.00
2018-08-12T10:38:48.771Z,40.80
2018-08-12T10:39:48.727Z,40.50
2018-08-12T10:40:48.709Z,40.60
2018-08-12T10:41:48.707Z,41.08
2018-08-12T10:42:48.721Z,40.78
2018-08-12T10:43:48.679Z,40.18
2018-08-12T10:44:48.710Z,40.90
2018-08-12T10:45:48.661Z,41.00
2018-08-12T10:46:48.640Z,40.90
2018-08-12T10:47:48.740Z,40.80
2018-08-12T10:48:48.666Z,41.00
2018-08-12T10:49:48.652Z,40.80
2018-08-12T10:50:48.661Z,41.20
2018-08-12T10:51:48.644Z,40.60
2018-08-12T10:52:48.588Z,41.09
2018-08-12T10:53:48.571Z,40.40
2018-08-12T10:54:48.589Z,40.08
2018-08-12T10:55:48.578Z,40.58
2018-08-12T10:56:48.565Z,39.89
2018-08-12T10:57:48.526Z,40.38
2018-08-12T10:58:48.520Z,39.78
2018-08-12T10:59:48.498Z,40.26
2018-08-12T11:00:48.621Z,39.47
2018-08-12T11:01:48.503Z,40.76
2018-08-12T11:02:48.468Z,40.06
2018-08-12T11:03:48.456Z,40.16
2018-08-12T11:04:48.449Z,39.65
2018-08-12T11:05:48.466Z,39.76
2018-08-12T11:06:48.430Z,39.86
2018-08-12T11:07:48.420Z,39.54
2018-08-12T11:08:48.410Z,40.16
2018-08-12T11:09:48.400Z,39.25
2018-08-12T11:10:48.426Z,38.75
2018-08-12T11:11:48.379Z,39.75
2018-08-12T11:12:48.470Z,39.84
2018-08-12T11:13:48.349Z,38.45
2018-08-12T11:14:48.342Z,38.85
2018-08-12T11:15:48.371Z,39.05
2018-08-12T11:16:48.312Z,38.64
2018-08-12T11:17:48.312Z,39.03
2018-08-12T11:18:48.354Z,38.75
2018-08-12T11:19:48.294Z,38.34
2018-08-12T11:20:48.299Z,38.93
2018-08-12T11:21:48.265Z,38.83
2018-08-12T11:22:48.376Z,38.14
2018-08-12T11:23:48.247Z,37.84
2018-08-12T11:24:48.227Z,37.84
2018-08-12T11:25:48.225Z,38.14
2018-08-12T11:26:48.204Z,40.12
2018-08-12T11:27:48.497Z,38.43
2018-08-12T11:28:48.189Z,38.24
2018-08-12T11:29:48.216Z,38.04
2018-08-12T11:30:48.160Z,37.92
2018-08-12T11:31:48.228Z,38.22
2018-08-12T11:32:48.322Z,37.72
2018-08-12T11:33:48.375Z,38.32
2018-08-12T11:34:48.254Z,38.22
2018-08-12T11:35:48.107Z,37.72
2018-08-12T11:36:48.092Z,37.72
2018-08-12T11:37:48.140Z,37.82
2018-08-12T11:38:48.081Z,38.32
2018-08-12T11:39:48.093Z,38.32
2018-08-12T11:40:48.090Z,38.32
2018-08-12T11:41:48.039Z,38.42
2018-08-12T11:42:48.060Z,37.72
2018-08-12T11:43:48.101Z,38.22
2018-08-12T11:44:48.006Z,37.82
2018-08-12T11:45:48.005Z,37.51
2018-08-12T11:46:47.983Z,38.60
2018-08-12T11:47:48.003Z,37.81
2018-08-12T11:48:47.960Z,37.70
2018-08-12T11:49:47.983Z,38.10
2018-08-12T11:50:47.964Z,37.70
2018-08-12T11:51:47.930Z,37.60
2018-08-12T11:52:47.913Z,37.41
2018-08-12T11:53:47.912Z,37.41
2018-08-12T11:54:47.925Z,36.02
2018-08-12T11:55:47.912Z,36.41
2018-08-12T11:56:47.873Z,37.41
2018-08-12T11:57:47.868Z,37.41
2018-08-12T11:58:47.883Z,37.21
2018-08-12T11:59:47.834Z,37.51
2018-08-12T12:00:47.865Z,37.23
2018-08-12T12:01:47.831Z,37.72
2018-08-12T12:02:47.820Z,37.21
2018-08-12T12:03:47.796Z,36.41
2018-08-12T12:04:47.782Z,37.21
2018-08-12T12:05:47.805Z,37.70
2018-08-12T12:06:47.774Z,37.30
2018-08-12T12:07:47.783Z,36.41
2018-08-12T12:08:47.747Z,37.51
2018-08-12T12:09:47.726Z,37.41
2018-08-12T12:10:47.755Z,36.30
2018-08-12T12:11:47.708Z,36.02
2018-08-12T12:12:47.696Z,35.92
2018-08-12T12:13:47.684Z,36.20
2018-08-12T12:14:47.674Z,36.51
2018-08-12T12:15:47.697Z,35.80
2018-08-12T12:16:47.659Z,37.39
2018-08-12T12:17:47.638Z,36.40
2018-08-12T12:18:47.641Z,36.50
2018-08-12T12:19:47.642Z,36.00
2018-08-12T12:20:47.630Z,35.71
2018-08-12T12:21:47.600Z,35.50
2018-08-12T12:22:47.692Z,35.92
2018-08-12T12:23:47.601Z,36.41
2018-08-12T12:24:47.565Z,35.50
2018-08-12T12:25:47.580Z,36.22
2018-08-12T12:26:47.546Z,37.21
2018-08-12T12:27:47.572Z,37.49
2018-08-12T12:28:47.523Z,36.40
2018-08-12T12:29:47.505Z,36.50
2018-08-12T12:30:47.505Z,36.08
2018-08-12T12:31:47.512Z,36.48
2018-08-12T12:32:47.504Z,36.28
2018-08-12T12:33:47.460Z,36.46
2018-08-12T12:34:47.449Z,36.36
2018-08-12T12:35:47.461Z,35.97
2018-08-12T12:36:47.434Z,35.65
2018-08-12T12:37:47.512Z,34.95
2018-08-12T12:38:47.414Z,34.74
2018-08-12T12:39:47.448Z,34.53
2018-08-12T12:40:47.385Z,34.63
2018-08-12T12:41:47.373Z,33.92
2018-08-12T12:42:47.444Z,33.52
2018-08-12T12:43:47.397Z,33.21
2018-08-12T12:44:47.389Z,32.31
2018-08-12T12:45:54.395Z,31.99
2018-08-12T12:46:47.317Z,31.30
2018-08-12T12:47:47.385Z,30.99
2018-08-12T12:48:47.305Z,31.47
2018-08-12T12:49:47.315Z,31.76
2018-08-12T12:50:47.282Z,32.04
2018-08-12T12:51:47.275Z,32.14
2018-08-12T12:52:47.919Z,31.93